Time;durP1;ratioP1;P1;durP2;ratioP2;P2;SDS_P1;SDS_P2;PMS_P1;PMS_P2;Temp;Humidity;BMP_temperature;BMP_pressure;BME280_temperature;BME280_humidity;BME280_pressure;Samples;Min_cycle;Max_cycle;Signal;HPM_P1;HPM_P2
2024/03/21 05:41:27;;;;;;;;;;;;;;;5.96;100.00;100338.99;107033;1286;22554;-56
2024/03/21 05:43:56;;;;;;;;;;;;;;;5.97;100.00;100341.59;108036;1290;22610;-58
2024/03/21 05:46:26;;;;;;;;;;;;;;;5.96;100.00;100344.19;108477;1290;23757;-57
2024/03/21 05:48:54;;;;;;;;;;;;;;;5.99;100.00;100343.39;108189;1292;22537;-57
2024/03/21 05:51:22;;;;;;;;;;;;;;;6.02;100.00;100347.24;107879;1290;22571;-58
2024/03/21 05:53:56;;;;;;;;;;;;;;;6.04;100.00;100348.17;106639;1292;23306;-58
2024/03/21 05:57:27;;;;;;;;;;;;;;;6.08;100.00;100348.93;106471;1292;22586;-59
2024/03/21 05:59:55;;;;;;;;;;;;;;;6.10;100.00;100350.02;107920;1279;22581;-56
2024/03/21 06:02:22;;;;;;;;;;;;;;;6.08;100.00;100355.00;108231;1297;22543;-58
2024/03/21 06:04:50;;;;;;;;;;;;;;;6.07;100.00;100357.04;108541;1293;22481;-58
2024/03/21 06:07:19;;;;;;;;;;;;;;;6.07;100.00;100363.45;107442;1289;22565;-57
2024/03/21 06:09:51;;;;;;;;;;;;;;;6.09;100.00;100363.85;107212;1297;22672;-59
2024/03/21 06:12:31;;;;;;;;;;;;;;;6.11;100.00;100364.92;107322;1290;22580;-59
2024/03/21 06:15:02;;;;;;;;;;;;;;;6.12;100.00;100365.80;107809;1290;22632;-58
2024/03/21 06:18:03;;;;;;;;;;;;;;;6.12;100.00;100364.25;107832;1292;22601;-56
2024/03/21 06:21:18;;;;;;;;;;;;;;;6.17;100.00;100365.21;107035;1289;22574;-55
2024/03/21 06:24:08;;;;;;;;;;;;;;;6.20;100.00;100371.31;106208;1295;22596;-59
2024/03/21 06:26:38;;;;;;;;;;;;;;;6.21;100.00;100372.56;106939;1289;23082;-59
2024/03/21 06:29:31;;;;;;;;;;;;;;;6.23;100.00;100374.84;107121;1290;22561;-58
2024/03/21 06:36:04;;;;;;;;;;;;;;;6.23;100.00;100383.15;106972;1292;22535;-60
2024/03/21 06:38:54;;;;;;;;;;;;;;;6.25;100.00;100385.77;105633;1290;23083;-57
2024/03/21 06:42:54;;;;;;;;;;;;;;;6.30;100.00;100390.04;106375;1289;22894;-53
2024/03/21 06:45:39;;;;;;;;;;;;;;;6.26;100.00;100393.08;105323;1294;22574;-60
2024/03/21 06:48:37;;;;;;;;;;;;;;;6.21;100.00;100399.06;106212;1279;23145;-60
2024/03/21 06:51:07;;;;;;;;;;;;;;;6.19;100.00;100397.27;106515;1290;24014;-59
2024/03/21 06:53:35;;;;;;;;;;;;;;;6.14;100.00;100400.48;107916;1290;23341;-57
2024/03/21 06:56:02;;;;;;;;;;;;;;;6.12;100.00;100405.29;106694;1296;23226;-56
2024/03/21 06:58:31;;;;;;;;;;;;;;;6.10;100.00;100402.67;106699;1290;22539;-53
2024/03/21 07:01:02;;;;;;;;;;;;;;;6.06;100.00;100406.55;106374;1295;22990;-62
2024/03/21 07:03:34;;;;;;;;;;;;;;;6.01;100.00;100406.11;107282;1289;22535;-56
2024/03/21 07:06:04;;;;;;;;;;;;;;;5.97;100.00;100406.55;107399;1293;22990;-60
2024/03/21 07:09:06;;;;;;;;;;;;;;;5.94;100.00;100405.96;106798;1295;22582;-60
2024/03/21 07:11:55;;;;;;;;;;;;;;;5.94;100.00;100412.36;107277;1290;22572;-55
2024/03/21 07:20:28;;;;;;;;;;;;;;;5.96;100.00;100417.59;106493;1279;22569;-56
2024/03/21 07:23:03;;;;;;;;;;;;;;;5.99;100.00;100422.35;106335;1292;23386;-58
2024/03/21 07:25:36;;;;;;;;;;;;;;;6.00;100.00;100426.52;106680;1293;22610;-56
2024/03/21 07:28:16;;;;;;;;;;;;;;;5.99;100.00;100427.89;106239;1298;23451;-56
2024/03/21 07:30:45;;;;;;;;;;;;;;;5.98;100.00;100428.57;106853;1293;22558;-56
2024/03/21 07:33:13;;;;;;;;;;;;;;;5.97;100.00;100430.27;106262;1293;23468;-56
2024/03/21 07:37:05;;;;;;;;;;;;;;;6.01;100.00;100435.20;107053;1298;22551;-57
2024/03/21 07:43:01;;;;;;;;;;;;;;;6.12;100.00;100435.59;106464;1293;22565;-60
2024/03/21 07:45:43;;;;;;;;;;;;;;;6.19;100.00;100438.67;107415;1283;23358;-56
2024/03/21 07:48:11;;;;;;;;;;;;;;;6.24;100.00;100437.05;107953;1293;22545;-58
2024/03/21 07:50:44;;;;;;;;;;;;;;;6.31;100.00;100438.75;107576;1299;22608;-55
2024/03/21 07:53:13;;;;;;;;;;;;;;;6.38;100.00;100436.28;106815;1293;22542;-54
2024/03/21 07:55:53;;;;;;;;;;;;;;;6.46;100.00;100439.36;106562;1299;22592;-56
2024/03/21 07:59:06;;;;;;;;;;;;;;;6.50;100.00;100442.59;107602;1296;22556;-56
2024/03/21 08:01:39;;;;;;;;;;;;;;;6.53;100.00;100442.63;107655;1298;22561;-56
2024/03/21 08:04:10;;;;;;;;;;;;;;;6.57;100.00;100442.89;106573;1295;22611;-57
2024/03/21 08:06:39;;;;;;;;;;;;;;;6.61;100.00;100444.35;107261;1292;22519;-56
2024/03/21 08:09:09;;;;;;;;;;;;;;;6.62;100.00;100447.47;107846;1293;22593;-57
2024/03/21 08:16:44;;;;;;;;;;;;;;;6.63;100.00;100449.92;99399;1292;22565;-58
2024/03/21 08:21:26;;;;;;;;;;;;;;;6.64;100.00;100456.00;106378;1292;22571;-60
2024/03/21 08:24:24;;;;;;;;;;;;;;;6.65;100.00;100459.31;107164;1293;23055;-55
2024/03/21 08:32:06;;;;;;;;;;;;;;;6.65;100.00;100460.70;107588;1289;22572;-56
2024/03/21 08:41:07;;;;;;;;;;;;;;;6.65;100.00;100462.95;106390;1295;23189;-50
2024/03/21 08:45:19;;;;;;;;;;;;;;;6.68;100.00;100463.34;106558;1293;22561;-57
2024/03/21 08:48:38;;;;;;;;;;;;;;;6.73;100.00;100462.59;107106;1292;22572;-59
2024/03/21 08:52:05;;;;;;;;;;;;;;;6.82;100.00;100467.08;109530;1279;22420;-57
2024/03/21 08:55:26;;;;;;;;;;;;;;;6.86;100.00;100473.05;106812;1282;22575;-55
2024/03/21 09:07:40;;;;;;;;;;;;;;;7.17;100.00;100472.02;106817;1288;22672;-60
2024/03/21 09:11:11;;;;;;;;;;;;;;;7.30;100.00;100472.57;106659;1289;22581;-56
2024/03/21 09:14:30;;;;;;;;;;;;;;;7.43;100.00;100476.42;107097;1297;24320;-59
2024/03/21 09:17:03;;;;;;;;;;;;;;;7.52;100.00;100476.05;107394;1289;22666;-59
2024/03/21 09:19:34;;;;;;;;;;;;;;;7.60;100.00;100474.59;107153;1290;22549;-55
2024/03/21 09:22:02;;;;;;;;;;;;;;;7.65;100.00;100473.65;106804;1290;22541;-61
2024/03/21 09:24:54;;;;;;;;;;;;;;;7.72;100.00;100474.44;106550;1292;22574;-57
2024/03/21 09:27:29;;;;;;;;;;;;;;;7.81;100.00;100476.46;108398;1289;22605;-55
2024/03/21 09:30:00;;;;;;;;;;;;;;;7.89;100.00;100478.32;106927;1296;22584;-59
2024/03/21 09:32:29;;;;;;;;;;;;;;;7.96;100.00;100474.59;107528;1290;23360;-57
2024/03/21 09:35:04;;;;;;;;;;;;;;;8.03;100.00;100476.07;107053;1290;22538;-57
2024/03/21 09:38:27;;;;;;;;;;;;;;;8.14;100.00;100474.13;106315;1284;26506;-63
2024/03/21 09:40:58;;;;;;;;;;;;;;;8.18;100.00;100475.06;108187;1289;22537;-60
2024/03/21 09:43:32;;;;;;;;;;;;;;;8.19;100.00;100474.89;108139;1292;22526;-61
2024/03/21 09:46:17;;;;;;;;;;;;;;;8.19;100.00;100476.80;107350;1294;23428;-58
2024/03/21 09:49:02;;;;;;;;;;;;;;;8.25;100.00;100476.36;107345;1292;25102;-57
2024/03/21 09:52:14;;;;;;;;;;;;;;;8.29;100.00;100476.05;106850;1292;22689;-56
2024/03/21 09:54:47;;;;;;;;;;;;;;;8.33;100.00;100476.44;107027;1292;22630;-55
2024/03/21 09:57:17;;;;;;;;;;;;;;;8.35;100.00;100476.84;108511;1289;22945;-57
2024/03/21 09:59:50;;;;;;;;;;;;;;;8.40;100.00;100479.00;106889;1279;24189;-55
2024/03/21 10:07:10;;;;;;;;;;;;;;;8.51;100.00;100481.20;106771;1290;24294;-59
2024/03/21 10:11:09;;;;;;;;;;;;;;;8.61;100.00;100475.24;107004;1290;22782;-55
2024/03/21 10:15:32;;;;;;;;;;;;;;;8.79;100.00;100475.08;106276;1290;22635;-57
2024/03/21 10:21:57;;;;;;;;;;;;;;;9.00;100.00;100470.23;108082;1288;22567;-58
2024/03/21 10:29:38;;;;;;;;;;;;;;;9.00;100.00;100473.71;106394;1290;23880;-60
2024/03/21 10:32:19;;;;;;;;;;;;;;;8.94;100.00;100477.48;106735;1290;22698;-55
2024/03/21 10:34:49;;;;;;;;;;;;;;;8.82;100.00;100472.67;107884;1297;22513;-56
2024/03/21 10:37:21;;;;;;;;;;;;;;;8.65;100.00;100471.45;107119;1296;23186;-58
2024/03/21 10:39:48;;;;;;;;;;;;;;;8.51;100.00;100471.83;107614;1294;22527;-57
2024/03/21 10:42:35;;;;;;;;;;;;;;;8.43;100.00;100471.55;107854;1290;22937;-56
2024/03/21 10:45:03;;;;;;;;;;;;;;;8.30;100.00;100472.60;108142;1290;22957;-56
2024/03/21 10:47:38;;;;;;;;;;;;;;;8.22;100.00;100470.77;107348;1297;22558;-58
2024/03/21 10:50:18;;;;;;;;;;;;;;;8.18;100.00;100470.36;107271;1290;22630;-57
2024/03/21 10:52:57;;;;;;;;;;;;;;;8.16;100.00;100466.67;108220;1289;22580;-56
2024/03/21 10:55:45;;;;;;;;;;;;;;;8.14;100.00;100464.92;106624;1289;23042;-60
2024/03/21 10:58:14;;;;;;;;;;;;;;;8.09;100.00;100463.81;107848;1289;22579;-59
2024/03/21 11:00:49;;;;;;;;;;;;;;;8.08;100.00;100459.98;108316;1290;23031;-61
2024/03/21 11:03:19;;;;;;;;;;;;;;;8.15;100.00;100459.72;108115;1297;23262;-61
2024/03/21 11:05:48;;;;;;;;;;;;;;;8.35;100.00;100457.88;107843;1289;22533;-61
2024/03/21 11:08:25;;;;;;;;;;;;;;;8.65;100.00;100458.95;107805;1289;22576;-59
2024/03/21 11:14:55;;;;;;;;;;;;;;;9.07;100.00;100459.68;107444;1289;24183;-54
2024/03/21 11:17:24;;;;;;;;;;;;;;;9.06;100.00;100459.86;107858;1292;23493;-58
2024/03/21 11:19:51;;;;;;;;;;;;;;;9.05;100.00;100460.02;108289;1289;23171;-59
2024/03/21 11:22:19;;;;;;;;;;;;;;;8.96;100.00;100459.58;108379;1291;22483;-60
2024/03/21 11:24:46;;;;;;;;;;;;;;;8.82;100.00;100459.98;108295;1292;23084;-60
2024/03/21 11:27:17;;;;;;;;;;;;;;;8.70;100.00;100459.16;107295;1290;22700;-56
2024/03/21 11:29:45;;;;;;;;;;;;;;;8.58;100.00;100454.69;107510;1289;22665;-57
2024/03/21 11:32:19;;;;;;;;;;;;;;;8.47;100.00;100459.27;107184;1292;23671;-57
2024/03/21 11:35:00;;;;;;;;;;;;;;;8.41;100.00;100460.41;106695;1292;22941;-60
2024/03/21 11:38:09;;;;;;;;;;;;;;;8.37;100.00;100457.77;106338;1293;25467;-56
2024/03/21 11:40:49;;;;;;;;;;;;;;;8.32;100.00;100459.23;106140;1290;22573;-60
2024/03/21 11:43:39;;;;;;;;;;;;;;;8.26;100.00;100461.08;106901;1290;24222;-56
2024/03/21 11:46:12;;;;;;;;;;;;;;;8.20;100.00;100460.83;106550;1293;22565;-57
2024/03/21 11:49:00;;;;;;;;;;;;;;;8.14;100.00;100462.14;106455;1290;22565;-56
2024/03/21 11:51:36;;;;;;;;;;;;;;;8.13;100.00;100459.02;106655;1290;22548;-56
2024/03/21 11:54:35;;;;;;;;;;;;;;;8.23;100.00;100457.39;106280;1293;22634;-58
2024/03/21 11:57:58;;;;;;;;;;;;;;;8.32;100.00;100458.17;107030;1290;22581;-55
2024/03/21 12:00:35;;;;;;;;;;;;;;;8.36;100.00;100462.77;106584;1290;22564;-55
2024/03/21 12:03:30;;;;;;;;;;;;;;;8.41;100.00;100461.10;107049;1290;22585;-60
2024/03/21 12:06:11;;;;;;;;;;;;;;;8.42;100.00;100458.00;107366;1297;22565;-59
2024/03/21 12:08:38;;;;;;;;;;;;;;;8.43;100.00;100464.09;107159;1289;22681;-55
2024/03/21 12:11:18;;;;;;;;;;;;;;;8.42;100.00;100460.08;107246;1296;22570;-55
2024/03/21 12:13:57;;;;;;;;;;;;;;;8.39;100.00;100461.59;107170;1293;22989;-56
2024/03/21 12:16:33;;;;;;;;;;;;;;;8.36;100.00;100464.01;106834;1292;22557;-59
2024/03/21 12:22:19;;;;;;;;;;;;;;;8.34;100.00;100461.50;106997;1296;22568;-58
2024/03/21 12:29:33;;;;;;;;;;;;;;;8.34;100.00;100459.59;105014;1293;22837;-60
2024/03/21 12:33:21;;;;;;;;;;;;;;;8.41;100.00;100461.10;106184;1290;23207;-59
2024/03/21 12:35:54;;;;;;;;;;;;;;;8.49;100.00;100459.63;107150;1297;22726;-62
2024/03/21 12:39:02;;;;;;;;;;;;;;;8.54;100.00;100460.91;106501;1295;23326;-61
2024/03/21 12:42:17;;;;;;;;;;;;;;;8.57;100.00;100457.45;106514;1297;22956;-56
2024/03/21 12:45:00;;;;;;;;;;;;;;;8.58;100.00;100460.60;106583;1290;22677;-56
2024/03/21 12:47:34;;;;;;;;;;;;;;;8.61;100.00;100457.50;107799;1295;22557;-57
2024/03/21 12:50:10;;;;;;;;;;;;;;;8.65;100.00;100462.95;105888;1297;23410;-58
2024/03/21 12:57:27;;;;;;;;;;;;;;;8.74;100.00;100458.84;106424;1292;22577;-56
2024/03/21 12:59:59;;;;;;;;;;;;;;;8.74;100.00;100456.58;107000;1293;23367;-54
2024/03/21 13:06:26;;;;;;;;;;;;;;;8.81;100.00;100457.19;107862;1290;22582;-58
2024/03/21 13:09:16;;;;;;;;;;;;;;;8.85;100.00;100456.52;106992;1292;23894;-56
2024/03/21 13:11:45;;;;;;;;;;;;;;;8.89;100.00;100456.91;107353;1293;22916;-54
2024/03/21 13:14:18;;;;;;;;;;;;;;;8.89;100.00;100455.00;107065;1293;24204;-55
2024/03/21 13:17:12;;;;;;;;;;;;;;;8.95;100.00;100457.48;106493;1297;22589;-57
2024/03/21 13:19:49;;;;;;;;;;;;;;;8.99;100.00;100458.23;107080;1289;23049;-57
2024/03/21 13:22:32;;;;;;;;;;;;;;;9.00;100.00;100455.45;106832;1292;23096;-56
2024/03/21 13:25:13;;;;;;;;;;;;;;;9.03;100.00;100459.29;107088;1297;22573;-56
2024/03/21 13:28:44;;;;;;;;;;;;;;;9.06;100.00;100461.59;106931;1298;23847;-54
2024/03/21 13:31:29;;;;;;;;;;;;;;;9.07;100.00;100460.55;105700;1296;23707;-55
2024/03/21 13:37:36;;;;;;;;;;;;;;;9.04;100.00;100459.14;108684;1269;22561;-60
2024/03/21 13:40:38;;;;;;;;;;;;;;;9.04;100.00;100460.52;107025;1296;23172;-55
2024/03/21 13:43:17;;;;;;;;;;;;;;;9.05;100.00;100458.98;106362;1293;22731;-51
2024/03/21 13:45:49;;;;;;;;;;;;;;;9.03;100.00;100458.78;106989;1292;22894;-57
2024/03/21 13:48:18;;;;;;;;;;;;;;;8.98;100.00;100458.91;106713;1292;22534;-56
2024/03/21 13:50:48;;;;;;;;;;;;;;;8.94;100.00;100458.52;107634;1296;23187;-61
2024/03/21 13:53:23;;;;;;;;;;;;;;;8.90;100.00;100455.52;107185;1292;23036;-56
2024/03/21 13:55:50;;;;;;;;;;;;;;;8.87;100.00;100456.36;107272;1290;22508;-60
2024/03/21 13:58:35;;;;;;;;;;;;;;;8.85;100.00;100455.13;107939;1292;22556;-57
2024/03/21 14:01:04;;;;;;;;;;;;;;;8.84;100.00;100451.82;107080;1292;22567;-56
2024/03/21 14:03:31;;;;;;;;;;;;;;;8.85;100.00;100450.44;106945;1297;22521;-62
2024/03/21 14:06:04;;;;;;;;;;;;;;;8.85;100.00;100450.78;108084;1290;22696;-58
2024/03/21 14:08:34;;;;;;;;;;;;;;;8.83;100.00;100448.69;107622;1293;22566;-55
2024/03/21 14:11:02;;;;;;;;;;;;;;;8.81;100.00;100449.54;106500;1295;22606;-57
2024/03/21 14:13:30;;;;;;;;;;;;;;;8.80;100.00;100446.55;107931;1292;22498;-61
2024/03/21 14:15:58;;;;;;;;;;;;;;;8.81;100.00;100446.38;108063;1291;22515;-55
2024/03/21 14:18:26;;;;;;;;;;;;;;;8.80;100.00;100445.86;107653;1297;22591;-61
2024/03/21 14:20:56;;;;;;;;;;;;;;;8.82;100.00;100449.38;107665;1297;22526;-56
2024/03/21 14:23:26;;;;;;;;;;;;;;;8.84;100.00;100449.91;107958;1297;22661;-56
2024/03/21 14:25:53;;;;;;;;;;;;;;;8.85;100.00;100448.88;106325;1297;23510;-60
2024/03/21 14:28:25;;;;;;;;;;;;;;;8.87;100.00;100452.89;107265;1298;22553;-59
2024/03/21 14:30:53;;;;;;;;;;;;;;;8.85;100.00;100452.70;106719;1290;23173;-59
2024/03/21 14:33:21;;;;;;;;;;;;;;;8.83;100.00;100455.46;107134;1279;22682;-56
2024/03/21 14:35:49;;;;;;;;;;;;;;;8.76;100.00;100456.44;106219;1295;22630;-60
2024/03/21 14:38:18;;;;;;;;;;;;;;;8.65;100.00;100457.20;107730;1298;22563;-56
2024/03/21 14:40:49;;;;;;;;;;;;;;;8.55;100.00;100459.35;105961;1295;26564;-55
2024/03/21 14:43:23;;;;;;;;;;;;;;;8.45;100.00;100464.27;106694;1293;22673;-59
2024/03/21 14:45:51;;;;;;;;;;;;;;;8.38;100.00;100468.02;106483;1285;22567;-58
2024/03/21 14:48:26;;;;;;;;;;;;;;;8.31;100.00;100468.25;107310;1298;22557;-55
2024/03/21 14:51:23;;;;;;;;;;;;;;;8.24;100.00;100466.08;106762;1299;24336;-60
2024/03/21 14:54:30;;;;;;;;;;;;;;;8.18;100.00;100464.80;107046;1293;22575;-56
2024/03/21 14:57:02;;;;;;;;;;;;;;;8.14;100.00;100466.83;107548;1299;23093;-60
2024/03/21 14:59:30;;;;;;;;;;;;;;;8.09;100.00;100470.08;108174;1299;22684;-60
2024/03/21 15:01:59;;;;;;;;;;;;;;;8.05;100.00;100470.01;108261;1298;22544;-60
2024/03/21 15:04:29;;;;;;;;;;;;;;;8.00;100.00;100470.48;108277;1298;22478;-56
2024/03/21 15:06:58;;;;;;;;;;;;;;;7.95;100.00;100472.50;108214;1299;23368;-56
2024/03/21 15:09:28;;;;;;;;;;;;;;;7.89;100.00;100473.79;108034;1299;22570;-61
2024/03/21 15:11:56;;;;;;;;;;;;;;;7.84;100.00;100472.00;108168;1299;22472;-56
2024/03/21 15:14:23;;;;;;;;;;;;;;;7.79;100.00;100473.67;108138;1299;22491;-61
2024/03/21 15:16:53;;;;;;;;;;;;;;;7.75;100.00;100473.60;107649;1299;22534;-58
2024/03/21 15:19:25;;;;;;;;;;;;;;;7.74;100.00;100473.07;108140;1299;22657;-59
